Terminal Aerodrome Forecast
Issued by NWS Sterling, VA

Current Version | Previous Version | Graphics & Text | Print | Product List | Glossary On
Versions: 1 2 3 4 5 6 7 8 9 10 11 12 13 14 15 16 17 18 19 20 21 22 23 24 25 26 27 28 29 30
000
FTUS41 KLWX 161500 AAC
TAFIAD
TAF AMD
KIAD 161553Z 1616/1718 21004KT 1 1/2SM RA BR BKN030 BKN050 OVC090
     FM161800 16007KT 3SM -SHRA OVC050
     FM162100 18006KT P6SM BKN015
     FM162200 19005KT P6SM BKN008
     FM170300 24004KT P6SM BKN050
     FM170500 25005KT P6SM SCT050
     FM171700 29013KT P6SM SCT250=

USA.gov is the U.S. government's official web portal to all federal, state and local government web resources and services.